Dillant Hopkins Airport


Codes: KEEN/EEN
Name: Dillant Hopkins Airport
City: Keene
Country: United States
Elevation: 488 ft.
Wikipedia:

Photos at Dillant Hopkins Airport


   Photos courtesy of SpottingLog. You can add your own sightings and photos by signing up for a free trial today.



No photos found.

Weather at Dillant Hopkins Airport


Time (UTC)DescriptionTempratureWindCloud coverageVisibilityPressureHumidity
25-Jun-2024 21:00Few Clouds29°C11 mph, W20%10000m1001hPa45%
26-Jun-2024 00:00Scattered Clouds26°C2 mph, NW37%10000m1004hPa52%
26-Jun-2024 03:00Broken Clouds23°C2 mph, S73%10000m1006hPa59%
26-Jun-2024 06:00Overcast Clouds21°C9 mph, SW100%10000m1007hPa56%
26-Jun-2024 09:00Overcast Clouds19°C7 mph, SW99%10000m1006hPa68%
26-Jun-2024 12:00Overcast Clouds21°C4 mph, SW99%10000m1006hPa71%
26-Jun-2024 15:00Broken Clouds27°C13 mph, W72%10000m1006hPa51%
26-Jun-2024 18:00Broken Clouds30°C13 mph, W71%10000m1006hPa31%
26-Jun-2024 21:00Scattered Clouds29°C11 mph, W35%10000m1005hPa34%
27-Jun-2024 00:00Broken Clouds23°C2 mph, SW67%10000m1004hPa71%
27-Jun-2024 03:00Moderate Rain18°C2 mph, S100%10000m1006hPa100%
27-Jun-2024 06:00Light Rain18°C2 mph, SW100%10000m1002hPa99%
27-Jun-2024 09:00Moderate Rain16°C4 mph, N100%10000m1003hPa98%
27-Jun-2024 12:00Light Rain18°C7 mph, W100%10000m1006hPa96%
27-Jun-2024 15:00Broken Clouds23°C11 mph, W70%10000m1007hPa52%
27-Jun-2024 18:00Broken Clouds24°C9 mph, NW78%10000m1007hPa47%
27-Jun-2024 21:00Broken Clouds25°C9 mph, NW68%10000m1008hPa38%
28-Jun-2024 00:00Broken Clouds20°C9 mph, NW58%10000m1011hPa52%
28-Jun-2024 03:00Broken Clouds16°C4 mph, N62%10000m1014hPa57%
28-Jun-2024 06:00Scattered Clouds11°C4 mph, N31%10000m1016hPa71%
28-Jun-2024 09:00Scattered Clouds10°C2 mph, N28%10000m1018hPa75%
28-Jun-2024 12:00Scattered Clouds16°C2 mph, NW43%10000m1020hPa53%
28-Jun-2024 15:00Overcast Clouds21°C4 mph, NW98%10000m1020hPa33%
28-Jun-2024 18:00Broken Clouds25°C2 mph, W80%10000m1019hPa30%
28-Jun-2024 21:00Broken Clouds25°C7 mph, S59%10000m1019hPa31%
29-Jun-2024 00:00Scattered Clouds18°C4 mph, S38%10000m1020hPa65%
29-Jun-2024 03:00Overcast Clouds16°C4 mph, S86%10000m1022hPa60%
29-Jun-2024 06:00Overcast Clouds12°C4 mph, S93%10000m1023hPa82%
29-Jun-2024 09:00Overcast Clouds12°C4 mph, S100%10000m1023hPa87%
29-Jun-2024 12:00Overcast Clouds16°C7 mph, S100%10000m1022hPa76%
29-Jun-2024 15:00Overcast Clouds21°C11 mph, S100%10000m1020hPa73%
29-Jun-2024 18:00Light Rain21°C11 mph, S100%7715m1018hPa93%
29-Jun-2024 21:00Moderate Rain22°C11 mph, S99%10000m1016hPa89%
30-Jun-2024 00:00Overcast Clouds22°C11 mph, S99%10000m1015hPa90%
30-Jun-2024 03:00Light Rain21°C13 mph, S100%254m1014hPa99%
30-Jun-2024 06:00Overcast Clouds22°C11 mph, N100%0m1012hPa99%
30-Jun-2024 09:00Overcast Clouds22°C9 mph, SW100%102m1012hPa99%
30-Jun-2024 12:00Light Rain23°C9 mph, SW100%5456m1012hPa98%
30-Jun-2024 15:00Light Rain26°C11 mph, W100%10000m1012hPa60%
30-Jun-2024 18:00Overcast Clouds26°C11 mph, W100%10000m1012hPa51%